ENKR

Kirkenes , Høybuktmoen Airport

Kirkenes, Norway
METAR ENKR 190550Z AUTO 17008KT 9999 NCD M14/M16 Q0998 RESN RMK WIND 731FT 21014KT
Observed Flight Rules
Jan-19 @ 05:50 UTC (29 minutes ago) Visual Flight Rules
Wind Visibility Clouds
170° at 8 knots 10,000+ meters
  • Clear skies
Temperatures Readings
Current -14°C / 7°F
Dewpoint -16°C / 3°F
Humidity 85%
Altimeter 29.47" Hg
Pressure 997.92 hPa
Elevation 91
METAR ENKR 190550Z AUTO 17008KT 9999 NCD M14/M16 Q0998 RESN RMK WIND 731FT 21014KT
Observed Flight Rules
Jan-19 @ 05:50 UTC
(29 minutes ago)
VFR
Wind Visibility
170° at 8 knots 10,000+ meters
Clouds
  • Clear skies
Temperature Dewpoint
-14°C / 7°F -16°C / 3°F
Humidity Altimeter Pressure
85% 29.47" Hg 997.92 hPa